createdAt,value
2019-01-17T00:23:44.583Z,31.05
2019-01-17T00:26:26.306Z,23.52
2019-01-17T00:28:58.889Z,23.73
2019-01-17T00:31:43.457Z,26.12
2019-01-17T00:34:25.158Z,27.73
2019-01-17T00:37:09.885Z,24.30
2019-01-17T00:39:45.301Z,23.00
2019-01-17T00:42:17.843Z,30.70
2019-01-17T00:44:59.457Z,25.88
2019-01-17T00:47:38.238Z,27.58
2019-01-17T00:50:23.398Z,21.10
2019-01-17T00:53:01.867Z,26.25
2019-01-17T00:55:34.489Z,33.18
2019-01-17T00:58:19.036Z,26.82
2019-01-17T01:00:54.636Z,25.55
2019-01-17T01:03:27.235Z,22.27
2019-01-17T01:06:00.869Z,27.00
2019-01-17T01:08:49.498Z,34.38
2019-01-17T01:11:25.277Z,28.70
2019-01-17T01:13:58.822Z,28.80
2019-01-17T01:16:50.259Z,23.18
2019-01-17T01:19:39.979Z,23.75
2019-01-17T01:22:25.731Z,27.67
2019-01-17T01:24:59.386Z,19.07
2019-01-17T01:27:41.897Z,24.43
2019-01-17T01:30:32.590Z,27.00
2019-01-17T01:33:06.206Z,26.20
2019-01-17T01:35:39.808Z,29.60
2019-01-17T01:38:13.405Z,25.90
2019-01-17T01:40:52.947Z,18.48
2019-01-17T01:43:29.419Z,23.38
2019-01-17T01:46:08.876Z,23.25
2019-01-17T01:48:53.526Z,23.38
2019-01-17T01:51:35.303Z,22.48
2019-01-17T01:54:07.792Z,21.27
2019-01-17T01:56:40.291Z,21.12
2019-01-17T01:59:12.846Z,22.67
2019-01-17T02:01:44.337Z,21.45
2019-01-17T02:04:16.858Z,23.32
2019-01-17T02:06:48.392Z,19.37
2019-01-17T02:09:19.942Z,21.65
2019-01-17T02:11:52.425Z,23.25
2019-01-17T02:14:23.917Z,18.17
2019-01-17T02:16:55.416Z,26.45
2019-01-17T02:19:27.901Z,23.95
2019-01-17T02:21:59.750Z,19.80
2019-01-17T02:24:32.418Z,21.48
2019-01-17T02:27:04.925Z,19.42
2019-01-17T02:29:38.410Z,19.17
2019-01-17T02:32:09.929Z,20.20
2019-01-17T02:34:42.498Z,21.23
2019-01-17T02:37:14.968Z,18.25
2019-01-17T02:39:46.699Z,19.98
2019-01-17T02:42:18.183Z,20.23
2019-01-17T02:44:50.713Z,22.22
2019-01-17T02:47:23.193Z,19.82
2019-01-17T02:49:54.795Z,19.20
2019-01-17T02:52:27.258Z,20.70
2019-01-17T02:54:59.773Z,20.65
2019-01-17T02:57:32.286Z,19.12
2019-01-17T03:00:04.723Z,17.15
2019-01-17T03:02:36.177Z,20.90
2019-01-17T03:05:08.775Z,19.00
2019-01-17T03:07:41.254Z,24.55
2019-01-17T03:10:13.789Z,19.62
2019-01-17T03:12:46.326Z,22.17
2019-01-17T03:15:18.763Z,20.02
2019-01-17T03:17:50.275Z,23.83
2019-01-17T03:20:21.837Z,19.87
2019-01-17T03:22:53.333Z,21.62
2019-01-17T03:25:26.538Z,24.40
2019-01-17T03:27:58.210Z,23.45
2019-01-17T03:30:29.750Z,18.48
2019-01-17T03:33:01.266Z,21.55
2019-01-17T03:35:32.795Z,29.65
2019-01-17T03:38:05.353Z,19.07
2019-01-17T03:40:36.802Z,22.82
2019-01-17T03:43:08.330Z,18.17
2019-01-17T03:45:40.823Z,19.48
2019-01-17T03:48:13.327Z,21.25
2019-01-17T03:50:44.838Z,19.07
2019-01-17T03:53:16.364Z,21.02
2019-01-17T03:55:48.072Z,24.75
2019-01-17T03:58:20.553Z,23.52
2019-01-17T04:00:53.126Z,24.70
2019-01-17T04:03:25.558Z,26.27
2019-01-17T04:05:57.092Z,21.70
2019-01-17T04:08:28.595Z,21.82
2019-01-17T04:11:00.197Z,23.40
2019-01-17T04:13:32.658Z,23.12
2019-01-17T04:16:04.196Z,23.75
2019-01-17T04:18:35.677Z,25.08
2019-01-17T04:21:07.190Z,22.42
2019-01-17T04:23:39.688Z,22.27
2019-01-17T04:26:11.253Z,22.55
2019-01-17T04:28:42.727Z,19.98
2019-01-17T04:31:14.313Z,22.10
2019-01-17T04:33:48.008Z,17.60
2019-01-17T04:36:19.665Z,22.32
2019-01-17T04:38:51.097Z,24.15
2019-01-17T04:41:22.675Z,24.00
2019-01-17T04:43:54.216Z,26.05
2019-01-17T04:46:26.733Z,22.82
2019-01-17T04:48:58.234Z,25.57
2019-01-17T04:51:30.720Z,23.92
2019-01-17T04:54:02.215Z,21.37
2019-01-17T04:56:34.705Z,24.92
2019-01-17T04:59:06.261Z,22.17
2019-01-17T05:01:37.714Z,24.67
2019-01-17T05:04:09.419Z,23.80
2019-01-17T05:06:40.943Z,17.80
2019-01-17T05:09:13.487Z,17.60
2019-01-17T05:11:45.986Z,18.90
2019-01-17T05:14:17.482Z,23.10
2019-01-17T05:16:49.380Z,21.85
2019-01-17T05:19:21.898Z,22.40
2019-01-17T05:21:54.589Z,24.05
2019-01-17T05:24:27.147Z,26.65
2019-01-17T05:26:58.651Z,21.30
2019-01-17T05:29:30.203Z,20.20
2019-01-17T05:32:01.737Z,22.90
2019-01-17T05:34:39.314Z,18.92
2019-01-17T05:37:07.828Z,23.25
2019-01-17T05:39:39.394Z,19.05
2019-01-17T05:42:11.969Z,16.40
2019-01-17T05:44:44.441Z,18.23
2019-01-17T05:47:16.917Z,20.68
2019-01-17T05:49:49.479Z,19.12
2019-01-17T05:52:20.998Z,18.92
2019-01-17T05:54:53.444Z,20.72
2019-01-17T05:57:24.987Z,16.23
2019-01-17T05:59:57.648Z,20.48
2019-01-17T06:02:29.211Z,16.77
2019-01-17T06:05:00.728Z,22.95
2019-01-17T06:07:33.210Z,19.27
2019-01-17T06:10:04.778Z,16.95
2019-01-17T06:12:36.270Z,14.90
2019-01-17T06:15:10.668Z,20.15
2019-01-17T06:17:42.227Z,18.85
2019-01-17T06:20:16.917Z,24.43
2019-01-17T06:22:48.478Z,20.40
2019-01-17T06:25:27.792Z,16.17
2019-01-17T06:27:54.676Z,18.87
2019-01-17T06:30:27.252Z,17.62
2019-01-17T06:32:58.744Z,18.55
2019-01-17T06:35:30.283Z,19.42
2019-01-17T06:38:01.788Z,15.72
2019-01-17T06:40:33.291Z,19.80
2019-01-17T06:43:04.776Z,20.43
2019-01-17T06:45:37.327Z,19.35
2019-01-17T06:48:09.836Z,20.48
2019-01-17T06:50:42.268Z,19.45
2019-01-17T06:53:13.789Z,21.42
2019-01-17T06:55:45.331Z,19.57
2019-01-17T06:58:17.823Z,23.42
2019-01-17T07:00:49.272Z,19.32
2019-01-17T07:03:20.801Z,18.87
2019-01-17T07:05:52.242Z,19.30
2019-01-17T07:08:23.775Z,19.70
2019-01-17T07:10:56.304Z,21.17
2019-01-17T07:13:28.729Z,16.40
2019-01-17T07:16:01.255Z,20.37
2019-01-17T07:18:33.820Z,24.67
2019-01-17T07:21:06.300Z,23.18
2019-01-17T07:23:38.860Z,18.95
2019-01-17T07:26:11.594Z,22.93
2019-01-17T07:28:44.427Z,21.80
2019-01-17T07:31:17.000Z,22.15
2019-01-17T07:33:49.556Z,21.17
2019-01-17T07:36:22.992Z,20.60
2019-01-17T07:38:55.558Z,21.73
2019-01-17T07:41:27.166Z,18.30
2019-01-17T07:43:58.617Z,18.98
2019-01-17T07:46:30.286Z,19.57
2019-01-17T07:49:02.772Z,20.62
2019-01-17T07:51:35.421Z,22.37
2019-01-17T07:54:07.927Z,27.45
2019-01-17T07:56:40.451Z,24.65
2019-01-17T07:59:12.893Z,24.57
2019-01-17T08:01:45.476Z,27.50
2019-01-17T08:04:17.002Z,24.25
2019-01-17T08:06:49.496Z,23.67
2019-01-17T08:09:20.995Z,23.02
2019-01-17T08:11:53.520Z,21.57
2019-01-17T08:14:27.760Z,25.82
2019-01-17T08:16:59.810Z,24.77
2019-01-17T08:19:31.379Z,20.30
2019-01-17T08:22:03.963Z,26.00
2019-01-17T08:24:36.505Z,23.77
2019-01-17T08:27:09.109Z,23.90
2019-01-17T08:29:40.984Z,22.00
2019-01-17T08:32:15.866Z,27.98
2019-01-17T08:34:48.338Z,22.05
2019-01-17T08:37:21.078Z,27.60
2019-01-17T08:39:52.636Z,29.85
2019-01-17T08:42:24.159Z,25.65
2019-01-17T08:44:56.730Z,19.62
2019-01-17T08:47:29.275Z,27.13
2019-01-17T08:50:01.853Z,19.82
2019-01-17T08:52:34.681Z,21.95
2019-01-17T08:55:07.802Z,25.08
2019-01-17T08:57:40.343Z,19.70
2019-01-17T09:00:15.023Z,24.12
2019-01-17T09:02:50.848Z,25.27
2019-01-17T09:05:39.152Z,25.17
2019-01-17T09:08:22.309Z,24.07
2019-01-17T09:10:47.661Z,22.50
2019-01-17T09:13:19.174Z,25.95
2019-01-17T09:15:51.747Z,25.75
2019-01-17T09:18:24.334Z,21.37
2019-01-17T09:20:55.879Z,26.48
2019-01-17T09:23:40.267Z,23.40
2019-01-17T09:26:13.157Z,26.07
2019-01-17T09:28:45.635Z,20.32
2019-01-17T09:31:17.193Z,23.67
2019-01-17T09:33:49.655Z,24.37
2019-01-17T09:36:22.198Z,25.17
2019-01-17T09:38:55.991Z,29.72
2019-01-17T09:41:28.440Z,25.25
2019-01-17T09:44:01.012Z,26.40
2019-01-17T09:46:33.641Z,23.75
2019-01-17T09:49:06.065Z,27.60
2019-01-17T09:51:38.646Z,24.15
2019-01-17T09:54:10.145Z,22.00
2019-01-17T09:56:41.720Z,22.93
2019-01-17T09:59:13.245Z,26.23
2019-01-17T10:01:45.891Z,25.50
2019-01-17T10:04:18.391Z,25.50
2019-01-17T10:06:49.925Z,25.82
2019-01-17T10:09:21.406Z,27.48
2019-01-17T10:11:52.992Z,29.37
2019-01-17T10:14:25.478Z,28.85
2019-01-17T10:16:58.330Z,26.10
2019-01-17T10:19:46.992Z,27.73
2019-01-17T10:22:24.643Z,25.88
2019-01-17T10:25:02.126Z,25.72
2019-01-17T10:27:39.899Z,27.82
2019-01-17T10:30:26.108Z,26.97
2019-01-17T10:33:03.455Z,22.60
2019-01-17T10:35:43.915Z,26.20
2019-01-17T10:38:33.111Z,21.70
2019-01-17T10:41:22.645Z,30.52
2019-01-17T10:44:02.946Z,27.55
2019-01-17T10:46:46.549Z,27.98
2019-01-17T10:49:39.046Z,25.20
2019-01-17T10:52:23.514Z,22.15
2019-01-17T10:55:17.748Z,21.57
2019-01-17T10:58:04.174Z,23.12
2019-01-17T11:00:38.895Z,26.93
2019-01-17T11:03:43.251Z,27.75
2019-01-17T11:06:20.339Z,19.37
2019-01-17T11:09:09.812Z,17.20
2019-01-17T11:12:00.398Z,26.75
2019-01-17T11:14:32.916Z,24.43
2019-01-17T11:17:19.767Z,28.70
2019-01-17T11:20:06.195Z,26.62
2019-01-17T11:22:52.805Z,21.62
2019-01-17T11:25:36.259Z,25.35
2019-01-17T11:28:31.719Z,26.62
2019-01-17T11:31:06.352Z,22.27
2019-01-17T11:33:52.661Z,26.40
2019-01-17T11:36:38.734Z,27.80
2019-01-17T11:39:11.333Z,24.57
2019-01-17T11:42:02.105Z,24.32
2019-01-17T11:44:57.600Z,27.02
2019-01-17T11:47:48.323Z,27.22
2019-01-17T11:50:43.632Z,23.90
2019-01-17T11:53:39.251Z,22.45
2019-01-17T11:56:22.552Z,23.35
2019-01-17T11:59:12.042Z,21.55
2019-01-17T12:02:10.017Z,23.22
2019-01-17T12:04:40.463Z,20.65
2019-01-17T12:07:14.899Z,21.25
2019-01-17T12:09:47.351Z,27.05
2019-01-17T12:12:20.990Z,20.55
2019-01-17T12:14:53.701Z,23.22
2019-01-17T12:17:27.259Z,23.70
2019-01-17T12:19:59.735Z,23.65
2019-01-17T12:22:32.247Z,25.37
2019-01-17T12:25:04.680Z,28.05
2019-01-17T12:27:42.507Z,22.02
2019-01-17T12:30:13.931Z,24.92
2019-01-17T12:32:46.517Z,19.52
2019-01-17T12:35:19.031Z,24.25
2019-01-17T12:37:50.545Z,27.98
2019-01-17T12:40:24.347Z,25.35
2019-01-17T12:42:56.831Z,29.63
2019-01-17T12:45:29.311Z,29.30
2019-01-17T12:48:01.847Z,26.05
2019-01-17T12:50:34.335Z,27.45
2019-01-17T12:53:06.894Z,27.48
2019-01-17T12:55:39.384Z,22.58
2019-01-17T12:58:10.926Z,18.12
2019-01-17T13:00:43.436Z,19.70
2019-01-17T13:03:15.926Z,26.85
2019-01-17T13:05:48.366Z,23.42
2019-01-17T13:08:19.963Z,24.77
2019-01-17T13:10:52.473Z,26.85
2019-01-17T13:13:24.988Z,26.70
2019-01-17T13:15:57.427Z,28.20
2019-01-17T13:18:31.548Z,24.92
2019-01-17T13:21:04.007Z,26.70
2019-01-17T13:23:36.553Z,25.70
2019-01-17T13:26:08.102Z,29.63
2019-01-17T13:28:40.673Z,28.40
2019-01-17T13:31:12.495Z,31.57
2019-01-17T13:33:45.128Z,26.70
2019-01-17T13:36:17.624Z,31.02
2019-01-17T13:38:50.233Z,29.75
2019-01-17T13:41:22.812Z,27.77
2019-01-17T13:43:55.286Z,29.35
2019-01-17T13:46:27.874Z,32.08
2019-01-17T13:49:00.405Z,29.55
2019-01-17T13:51:32.900Z,27.50
2019-01-17T13:54:05.396Z,35.40
2019-01-17T13:56:37.870Z,31.48
2019-01-17T13:59:10.447Z,31.68
2019-01-17T14:01:42.998Z,37.93
2019-01-17T14:04:15.578Z,29.32
2019-01-17T14:06:48.077Z,33.83
2019-01-17T14:09:20.597Z,31.05
2019-01-17T14:11:53.104Z,27.75
2019-01-17T14:14:25.614Z,29.35
2019-01-17T14:16:58.145Z,34.05
2019-01-17T14:19:30.685Z,30.57
2019-01-17T14:22:03.430Z,27.70
2019-01-17T14:24:35.961Z,29.20
2019-01-17T14:27:13.893Z,32.63
2019-01-17T14:29:42.343Z,26.57
2019-01-17T14:32:14.902Z,26.75
2019-01-17T14:34:46.451Z,30.02
2019-01-17T14:37:19.010Z,30.15
2019-01-17T14:39:52.565Z,28.83
2019-01-17T14:42:25.016Z,30.10
2019-01-17T14:44:57.491Z,26.33
2019-01-17T14:47:34.653Z,25.60
2019-01-17T14:50:07.812Z,23.55
2019-01-17T14:52:40.354Z,31.05
2019-01-17T14:55:11.911Z,23.00
2019-01-17T14:57:44.498Z,22.93
2019-01-17T15:00:27.968Z,26.73
2019-01-17T15:03:00.485Z,24.85
2019-01-17T15:05:33.078Z,29.90
2019-01-17T15:08:05.658Z,24.55
2019-01-17T15:10:43.268Z,25.30
2019-01-17T15:13:19.300Z,27.85
2019-01-17T15:15:51.893Z,27.67
2019-01-17T15:18:24.349Z,30.35
2019-01-17T15:20:57.227Z,33.33
2019-01-17T15:23:29.710Z,22.55
2019-01-17T15:26:01.282Z,26.82
2019-01-17T15:28:33.840Z,27.42
2019-01-17T15:31:06.759Z,26.00
2019-01-17T15:33:39.325Z,21.75
2019-01-17T15:36:13.740Z,29.05
2019-01-17T15:38:46.281Z,20.88
2019-01-17T15:41:18.831Z,19.92
2019-01-17T15:43:50.368Z,28.30
2019-01-17T15:46:22.912Z,26.57
2019-01-17T15:48:55.358Z,28.70
2019-01-17T15:51:27.920Z,28.87
2019-01-17T15:54:00.388Z,28.60
2019-01-17T15:56:33.000Z,29.48
2019-01-17T15:59:05.530Z,26.02
2019-01-17T16:01:38.095Z,28.23
2019-01-17T16:04:10.555Z,30.80
2019-01-17T16:06:43.090Z,22.65
2019-01-17T16:09:15.556Z,32.55
2019-01-17T16:11:48.256Z,25.02
2019-01-17T16:14:20.905Z,30.55
2019-01-17T16:16:53.445Z,25.62
2019-01-17T16:19:26.030Z,28.25
2019-01-17T16:21:58.800Z,29.25
2019-01-17T16:24:30.313Z,27.62
2019-01-17T16:27:03.007Z,29.85
2019-01-17T16:29:36.075Z,26.15
2019-01-17T16:32:09.286Z,27.15
2019-01-17T16:34:40.897Z,29.27
2019-01-17T16:37:13.335Z,25.00
2019-01-17T16:39:46.113Z,30.75
2019-01-17T16:42:18.636Z,30.85
2019-01-17T16:44:50.197Z,31.45
2019-01-17T16:47:22.731Z,30.40
2019-01-17T16:49:55.269Z,31.77
2019-01-17T16:52:27.704Z,30.37
2019-01-17T16:55:00.216Z,32.42
2019-01-17T16:57:32.870Z,26.48
2019-01-17T17:00:05.401Z,25.65
2019-01-17T17:02:37.998Z,35.05
2019-01-17T17:05:09.590Z,31.15
2019-01-17T17:07:42.150Z,31.73
2019-01-17T17:10:14.529Z,22.87
2019-01-17T17:12:47.059Z,31.35
2019-01-17T17:15:19.577Z,20.95
2019-01-17T17:17:52.131Z,22.93
2019-01-17T17:20:25.735Z,27.00
2019-01-17T17:22:57.263Z,25.30
2019-01-17T17:25:28.815Z,28.42
2019-01-17T17:28:01.356Z,25.85
2019-01-17T17:30:33.452Z,28.35
2019-01-17T17:33:06.678Z,25.23
2019-01-17T17:35:39.256Z,25.17
2019-01-17T17:38:11.800Z,29.32
2019-01-17T17:40:44.330Z,22.20
2019-01-17T17:43:16.806Z,30.95
2019-01-17T17:45:49.271Z,29.18
2019-01-17T17:48:21.929Z,24.82
2019-01-17T17:50:54.612Z,26.48
2019-01-17T17:53:26.213Z,24.85
2019-01-17T17:55:58.769Z,32.70
2019-01-17T17:58:31.247Z,22.73
2019-01-17T18:06:24.476Z,22.93
2019-01-17T18:08:55.959Z,28.12
2019-01-17T18:11:27.473Z,26.85
2019-01-17T18:13:59.928Z,22.75
2019-01-17T18:16:32.469Z,25.90
2019-01-17T18:19:06.042Z,25.00
2019-01-17T18:21:38.582Z,24.82
2019-01-17T18:24:11.010Z,18.12
2019-01-17T18:26:43.477Z,27.58
2019-01-17T18:29:16.182Z,21.68
2019-01-17T18:31:47.694Z,22.75
2019-01-17T18:34:20.226Z,25.52
2019-01-17T18:36:52.704Z,27.73
2019-01-17T18:39:25.325Z,26.57
2019-01-17T18:41:58.851Z,24.32
2019-01-17T18:44:32.856Z,31.35
2019-01-17T18:47:05.351Z,25.48
2019-01-17T18:49:36.916Z,28.27
2019-01-17T18:52:09.411Z,29.18
2019-01-17T18:54:41.923Z,26.50
2019-01-17T18:57:14.433Z,21.00
2019-01-17T18:59:47.078Z,24.15
2019-01-17T19:02:18.555Z,22.90
2019-01-17T19:04:51.178Z,25.35
2019-01-17T19:07:23.246Z,27.00
2019-01-17T19:09:55.737Z,28.67
2019-01-17T19:12:28.253Z,35.00
2019-01-17T19:15:00.742Z,33.70
2019-01-17T19:17:32.288Z,29.30
2019-01-17T19:20:04.775Z,26.90
2019-01-17T19:22:37.307Z,23.87
2019-01-17T19:25:09.116Z,26.02
2019-01-17T19:27:41.583Z,28.05
2019-01-17T19:30:14.188Z,22.98
2019-01-17T19:32:46.632Z,30.57
2019-01-17T19:35:19.488Z,31.45
2019-01-17T19:37:52.111Z,31.17
2019-01-17T19:40:26.312Z,31.40
2019-01-17T19:42:58.888Z,23.42
2019-01-17T19:45:31.409Z,25.68
2019-01-17T19:48:03.973Z,30.40
2019-01-17T19:50:37.742Z,22.42
2019-01-17T19:53:10.191Z,25.97
2019-01-17T19:55:42.773Z,23.75
2019-01-17T19:58:16.157Z,23.35
2019-01-17T20:00:48.687Z,22.15
2019-01-17T20:03:21.176Z,25.00
2019-01-17T20:05:53.374Z,21.68
2019-01-17T20:08:25.895Z,21.10
2019-01-17T20:10:58.479Z,18.85
2019-01-17T20:13:30.962Z,20.48
2019-01-17T20:16:03.522Z,17.70
2019-01-17T20:18:36.005Z,19.92
2019-01-17T20:21:08.547Z,19.45
2019-01-17T20:23:41.080Z,20.90
2019-01-17T20:26:12.600Z,24.18
2019-01-17T20:28:45.090Z,17.40
2019-01-17T20:31:17.662Z,17.15
2019-01-17T20:33:50.124Z,19.85
2019-01-17T20:36:21.662Z,14.83
2019-01-17T20:38:54.595Z,19.15
2019-01-17T20:41:27.141Z,17.98
2019-01-17T20:43:58.618Z,18.55
2019-01-17T20:46:31.176Z,28.42
2019-01-17T20:49:03.631Z,26.82
2019-01-17T20:51:35.221Z,24.70
2019-01-17T20:54:07.666Z,24.10
2019-01-17T20:56:40.637Z,27.00
2019-01-17T20:59:13.170Z,22.22
2019-01-17T21:01:59.560Z,25.12
2019-01-17T21:04:32.088Z,27.22
2019-01-17T21:07:05.831Z,36.28
2019-01-17T21:09:37.869Z,30.10
2019-01-17T21:12:09.501Z,24.77
2019-01-17T21:14:42.032Z,25.62
2019-01-17T21:17:13.559Z,32.90
2019-01-17T21:19:46.027Z,25.02
2019-01-17T21:22:18.602Z,24.25
2019-01-17T21:24:51.117Z,26.68
2019-01-17T21:27:23.649Z,23.32
2019-01-17T21:29:55.152Z,20.80
2019-01-17T21:32:27.732Z,22.52
2019-01-17T21:35:00.228Z,27.82
2019-01-17T21:37:32.719Z,25.85
2019-01-17T21:40:05.202Z,27.35
2019-01-17T21:42:36.772Z,21.12
2019-01-17T21:45:11.624Z,21.45
2019-01-17T21:47:43.173Z,20.97
2019-01-17T21:50:18.547Z,23.98
2019-01-17T21:52:51.033Z,22.55
2019-01-17T21:55:23.507Z,31.50
2019-01-17T21:57:56.002Z,30.55
2019-01-17T22:00:35.185Z,24.85
2019-01-17T22:03:13.982Z,22.87
2019-01-17T22:05:56.378Z,22.05
2019-01-17T22:08:29.300Z,21.33
2019-01-17T22:11:00.831Z,30.23
2019-01-17T22:13:33.450Z,24.85
2019-01-17T22:16:06.001Z,27.42
2019-01-17T22:18:38.582Z,25.40
2019-01-17T22:21:11.117Z,31.42
2019-01-17T22:23:43.643Z,26.48
2019-01-17T22:26:20.878Z,32.55
2019-01-17T22:28:48.954Z,32.93
2019-01-17T22:31:20.494Z,37.98
2019-01-17T22:33:53.034Z,39.48
2019-01-17T22:36:24.500Z,49.88
2019-01-17T22:38:57.000Z,39.92
2019-01-17T22:41:29.558Z,44.18
2019-01-17T22:44:02.172Z,46.37
2019-01-17T22:46:34.738Z,84.20
2019-01-17T22:49:06.267Z,66.05
2019-01-17T22:51:38.789Z,37.58
2019-01-17T22:54:11.334Z,62.83
2019-01-17T22:56:43.868Z,39.73
2019-01-17T22:59:16.481Z,33.60
2019-01-17T23:01:48.939Z,34.65
2019-01-17T23:04:21.437Z,41.25
2019-01-17T23:06:54.001Z,28.83
2019-01-17T23:09:27.324Z,43.20
2019-01-17T23:11:59.856Z,44.83
2019-01-17T23:14:32.373Z,42.70
2019-01-17T23:17:04.941Z,33.58
2019-01-17T23:19:37.482Z,29.18
2019-01-17T23:22:08.916Z,30.37
2019-01-17T23:24:40.551Z,31.02
2019-01-17T23:27:13.049Z,25.00
2019-01-17T23:29:45.626Z,27.25
2019-01-17T23:32:18.089Z,23.70
2019-01-17T23:34:50.658Z,26.00
2019-01-17T23:37:23.186Z,24.60
2019-01-17T23:39:55.692Z,27.30
2019-01-17T23:42:28.267Z,32.33
2019-01-17T23:45:00.747Z,26.07
2019-01-17T23:47:32.305Z,23.05
2019-01-17T23:50:04.752Z,23.12
2019-01-17T23:52:36.283Z,23.50
2019-01-17T23:55:09.324Z,18.82
2019-01-17T23:57:41.839Z,21.97
